Prunedale, CA

5:45 AM PDT on August 27, 2014 (GMT -0700)
Prunedale | Change Station
CLOSE
Current Station
Personal Weather Station
Location: Salinas, CA
Elevation: 236 ft
Nearby Weather Stations

Elev 236 ft 36.81 °N, 121.68 °W | Updated 1 second ago

Clear
Clear
51.8 °F
Feels Like 51.8 °F
N
0.0
Wind Variable Wind from ESE
Gusts 0.0 mph

Today
High -- | Low -- °F
--% Chance of Precip.
Yesterday
High -- | Low -- °F
Precip. -- in
6:33 AM 7:41 PM
Waxing Crescent, 3% visible
Pressure 30.04 in
Visibility 10.0 miles
Clouds Clear
Dew Point 45 °F
Humidity 78%
Rainfall 0.00 in
Snow Depth Not available.
UV 0.0 out of 12
Pollen 7.00 out of 12
Air Quality Not available.
Flu Activity Not available.
METAR KSNS 271153Z AUTO 00000KT 10SM CLR 13/12 A3002 RMK AO2 SLP173 T01330117 10167 20128 50000

More Conditions Fewer Conditions

Pressure 30.04 in
Visibility 10.0 miles
Clouds Clear
Dew Point 45 °F
Humidity 78%
Rainfall 0.00 in
Snow Depth Not available.
UV 0.0 out of 12
Pollen 7.00 out of 12
Air Quality Not available.
Flu Activity Not available.
METAR KSNS 271153Z AUTO 00000KT 10SM CLR 13/12 A3002 RMK AO2 SLP173 T01330117 10167 20128 50000

More Conditions Fewer Conditions

10-Day Weather Forecast

Almanac

Astronomy

Aug. 27, 2014 Rise Set
Actual Time 6:33 AM PDT 7:41 PM PDT
Civil Twilight 6:07 AM PDT 8:08 PM PDT
Nautical Twilight 5:35 AM PDT 8:40 PM PDT
Astronomical Twilight 5:02 AM PDT 9:13 PM PDT
Moon 8:30 AM PDT 8:41 PM PDT
Length of Visible Light 14h 01m
Length of Day
13h 08m
Tomorrow will be 2m 12s shorter.
Waxing Crescent, 3% of the Moon is Illuminated
Today
Waxing Crescent
Sep 2
First Quarter
Sep 8
Full
Sep 15
Last Quarter
Sep 24
New

Today's Extremes

State Highs State Lows

Community

WunderPhotos

Upload Photos

1,747,676 photos uploaded!

Nearby

Snow Depth

Station Depth Elevation
Leavitt Lake 1 in 9400 ft
Sonora Pass 0 in 8800 ft
Leavitt Meadows 1 in 7200 ft
Blue Lakes 0 in 8000 ft
Ebbetts Pass 0 in 8700 ft

Earthquake Activity

City Distance Mag. Time & Date
Soledad, California 34 miles 2.6 12:15 PM PDT
2014-08-26
Napa, California 108 miles 2.5 10:56 AM PDT
2014-08-26
Napa, California 109 miles 3.0 6:45 AM PDT
2014-08-26
American Canyon, California 104 miles 2.8 6:12 AM PDT
2014-08-26
Minimum magnitude displayed is 2.5.

Coastal Water Temperatures

Place Temperature
Monterey, CA 64.0 °F
Redwood City, CA 73.0 °F

Nearby Weather Stations